Time;durP1;ratioP1;P1;durP2;ratioP2;P2;SDS_P1;SDS_P2;PMS_P1;PMS_P2;Temp;Humidity;BMP_temperature;BMP_pressure;BME280_temperature;BME280_humidity;BME280_pressure;Samples;Min_cycle;Max_cycle;Signal;HPM_P1;HPM_P2
2022/01/21 00:00:16;;;;;;;11.52;7.25;;;;;;;;;;6334771;22;19984;-76
2022/01/21 00:03:10;;;;;;;13.77;8.38;;;;;;;;;;6331669;22;20038;-75
2022/01/21 00:05:39;;;;;;;15.25;8.20;;;;;;;;;;6269134;22;20036;-74
2022/01/21 00:08:05;;;;;;;13.85;8.32;;;;;;;;;;6267209;22;20346;-73
2022/01/21 00:10:38;;;;;;;14.25;8.52;;;;;;;;;;6267475;22;20048;-76
2022/01/21 00:15:40;;;;;;;16.08;9.10;;;;;;;;;;6271011;22;20008;-76
2022/01/21 00:18:08;;;;;;;15.60;8.18;;;;;;;;;;6268134;22;19999;-74
2022/01/21 00:31:37;;;;;;;12.15;7.15;;;;;;;;;;6275524;22;20003;-75
2022/01/21 00:34:03;;;;;;;14.27;6.75;;;;;;;;;;6274086;22;19996;-74
2022/01/21 00:36:32;;;;;;;13.52;7.15;;;;;;;;;;6275737;22;20003;-79
2022/01/21 00:38:58;;;;;;;11.15;6.93;;;;;;;;;;6275342;22;20000;-76
2022/01/21 00:41:58;;;;;;;10.65;6.03;;;;;;;;;;6274554;22;20023;-78
2022/01/21 00:44:36;;;;;;;10.40;5.55;;;;;;;;;;6275544;22;20008;-76
2022/01/21 00:47:04;;;;;;;9.30;6.10;;;;;;;;;;6274657;22;20004;-76
2022/01/21 00:49:34;;;;;;;9.93;5.68;;;;;;;;;;6273639;22;20008;-79
2022/01/21 00:52:00;;;;;;;10.23;6.57;;;;;;;;;;6275320;22;19996;-77
2022/01/21 00:54:28;;;;;;;10.27;6.10;;;;;;;;;;6275425;22;20040;-78
2022/01/21 00:56:54;;;;;;;12.77;8.85;;;;;;;;;;6275108;22;20008;-76
2022/01/21 00:59:42;;;;;;;13.07;7.93;;;;;;;;;;6244341;22;20019;-77
2022/01/21 01:02:08;;;;;;;15.32;9.52;;;;;;;;;;6228426;22;20075;-76
2022/01/21 01:04:34;;;;;;;17.50;10.07;;;;;;;;;;6305855;22;20015;-75
2022/01/21 01:07:00;;;;;;;18.42;11.65;;;;;;;;;;6280425;22;19996;-76
2022/01/21 01:09:26;;;;;;;17.42;9.48;;;;;;;;;;6280200;22;20051;-77
2022/01/21 01:12:25;;;;;;;12.40;7.35;;;;;;;;;;6306249;22;20010;-75
2022/01/21 01:20:08;;;;;;;18.50;9.73;;;;;;;;;;6274517;22;20026;-76
2022/01/21 01:23:03;;;;;;;14.02;9.07;;;;;;;;;;6275410;22;20012;-75
2022/01/21 01:28:07;;;;;;;16.48;9.23;;;;;;;;;;6275114;22;19999;-78
2022/01/21 01:30:35;;;;;;;17.20;9.43;;;;;;;;;;6275147;22;19992;-75
2022/01/21 01:33:02;;;;;;;16.42;9.05;;;;;;;;;;6274245;22;20507;-75
2022/01/21 01:35:33;;;;;;;16.77;8.52;;;;;;;;;;6274080;22;20015;-74
2022/01/21 01:40:52;;;;;;;21.75;12.60;;;;;;;;;;6285610;22;20039;-75
2022/01/21 01:51:24;;;;;;;18.70;10.07;;;;;;;;;;6275492;22;20003;-77
2022/01/21 01:53:54;;;;;;;16.30;8.40;;;;;;;;;;6273471;22;19989;-76
2022/01/21 01:56:26;;;;;;;14.35;8.65;;;;;;;;;;6274579;22;20012;-76
2022/01/21 01:58:53;;;;;;;;;;;;;;;;;;6273724;22;20076;-80
2022/01/21 02:01:19;;;;;;;17.40;8.32;;;;;;;;;;6274413;22;19899;-75
2022/01/21 02:03:45;;;;;;;16.70;8.07;;;;;;;;;;6267690;22;20008;-74
2022/01/21 02:06:11;;;;;;;12.18;6.55;;;;;;;;;;6277673;22;19992;-78
2022/01/21 02:08:39;;;;;;;12.70;7.30;;;;;;;;;;6279469;22;20057;-78
2022/01/21 02:11:06;;;;;;;13.27;6.60;;;;;;;;;;6279096;22;19991;-76
2022/01/21 02:13:38;;;;;;;12.05;7.38;;;;;;;;;;6277519;22;19992;-76
2022/01/21 02:16:11;;;;;;;12.47;7.17;;;;;;;;;;6304890;22;20019;-74
2022/01/21 02:24:01;;;;;;;10.38;6.65;;;;;;;;;;6304689;22;20000;-76
2022/01/21 02:26:30;;;;;;;10.75;5.80;;;;;;;;;;6272867;22;19980;-74
2022/01/21 02:28:58;;;;;;;9.80;5.25;;;;;;;;;;6278817;22;20013;-75
2022/01/21 02:34:01;;;;;;;15.00;8.07;;;;;;;;;;6222080;22;20024;-83
2022/01/21 02:36:28;;;;;;;17.80;9.15;;;;;;;;;;6274752;22;20008;-76
2022/01/21 02:38:56;;;;;;;11.10;5.35;;;;;;;;;;6272662;22;19992;-75
2022/01/21 02:41:22;;;;;;;8.10;4.22;;;;;;;;;;6271370;22;20088;-77
2022/01/21 02:43:49;;;;;;;10.85;5.30;;;;;;;;;;6274577;22;19992;-79
2022/01/21 02:46:16;;;;;;;11.63;5.22;;;;;;;;;;6273674;22;19993;-78
2022/01/21 02:48:42;;;;;;;11.68;5.28;;;;;;;;;;6272790;22;20005;-81
2022/01/21 02:51:10;;;;;;;10.10;4.90;;;;;;;;;;6273448;22;19992;-77
2022/01/21 02:53:41;;;;;;;9.43;5.03;;;;;;;;;;6273607;22;20000;-80
2022/01/21 02:56:10;;;;;;;13.25;5.88;;;;;;;;;;6273894;22;20004;-79
2022/01/21 02:58:36;;;;;;;9.23;5.10;;;;;;;;;;6272693;22;20012;-77
2022/01/21 03:01:03;;;;;;;10.80;6.10;;;;;;;;;;6274450;22;20011;-77
2022/01/21 03:03:29;;;;;;;10.13;5.72;;;;;;;;;;6296647;22;20031;-77
2022/01/21 03:05:55;;;;;;;10.77;6.05;;;;;;;;;;6302455;22;20051;-74
2022/01/21 03:08:21;;;;;;;12.25;5.00;;;;;;;;;;6303409;22;20426;-76
2022/01/21 03:10:50;;;;;;;10.55;5.03;;;;;;;;;;6300885;22;19995;-76
2022/01/21 03:13:38;;;;;;;9.82;5.22;;;;;;;;;;6303215;22;20012;-76
2022/01/21 03:16:07;;;;;;;11.82;5.30;;;;;;;;;;6304660;22;19992;-76
2022/01/21 03:18:33;;;;;;;10.30;5.03;;;;;;;;;;6301473;22;19999;-75
2022/01/21 03:21:00;;;;;;;10.75;4.78;;;;;;;;;;6302323;22;20032;-78
2022/01/21 03:23:28;;;;;;;11.85;5.40;;;;;;;;;;6302271;22;20051;-75
2022/01/21 03:29:01;;;;;;;10.02;5.45;;;;;;;;;;6304042;22;20003;-79
2022/01/21 03:31:41;;;;;;;14.90;5.03;;;;;;;;;;6302992;22;20004;-76
2022/01/21 03:34:19;;;;;;;16.52;6.88;;;;;;;;;;6304374;22;20007;-81
2022/01/21 03:36:45;;;;;;;14.43;8.60;;;;;;;;;;6308483;22;19999;-77
2022/01/21 03:39:12;;;;;;;20.05;10.63;;;;;;;;;;6336213;22;20014;-76
2022/01/21 03:41:39;;;;;;;15.95;7.78;;;;;;;;;;6309948;22;19991;-80
2022/01/21 03:44:05;;;;;;;11.45;6.57;;;;;;;;;;6336307;22;20003;-78
2022/01/21 03:46:31;;;;;;;14.85;7.65;;;;;;;;;;6308697;22;20007;-78
2022/01/21 03:48:58;;;;;;;16.05;8.57;;;;;;;;;;6335623;22;19998;-77
2022/01/21 03:51:49;;;;;;;23.90;12.68;;;;;;;;;;6310314;22;20008;-79
2022/01/21 03:54:15;;;;;;;23.63;11.38;;;;;;;;;;6184339;23;20013;-75
2022/01/21 03:56:41;;;;;;;15.95;9.43;;;;;;;;;;6184071;23;20663;-75
2022/01/21 04:02:17;;;;;;;13.20;5.85;;;;;;;;;;6144909;22;20043;-77
2022/01/21 04:04:43;;;;;;;11.40;5.70;;;;;;;;;;6275709;22;20047;-74
2022/01/21 04:07:15;;;;;;;13.15;5.63;;;;;;;;;;6274125;22;19992;-76
2022/01/21 04:09:48;;;;;;;12.75;5.78;;;;;;;;;;6273991;22;20053;-78
2022/01/21 04:12:14;;;;;;;;;;;;;;;;;;6276693;22;20064;-74
2022/01/21 04:14:41;;;;;;;14.23;5.80;;;;;;;;;;6276215;22;19904;-80
2022/01/21 04:17:08;;;;;;;12.55;6.45;;;;;;;;;;6274560;22;20006;-75
2022/01/21 04:19:34;;;;;;;15.75;7.82;;;;;;;;;;6275186;22;20041;-80
2022/01/21 04:22:00;;;;;;;16.85;7.70;;;;;;;;;;6275715;22;19985;-76
2022/01/21 04:24:26;;;;;;;10.60;5.25;;;;;;;;;;6275307;22;19992;-78
2022/01/21 04:26:53;;;;;;;10.35;5.57;;;;;;;;;;6274687;22;20026;-80
2022/01/21 04:29:21;;;;;;;10.93;6.07;;;;;;;;;;6275060;22;20008;-79
2022/01/21 04:31:47;;;;;;;14.60;7.10;;;;;;;;;;6272373;22;20052;-79
2022/01/21 04:34:13;;;;;;;16.65;7.45;;;;;;;;;;6274028;22;20004;-75
2022/01/21 04:36:40;;;;;;;14.73;7.03;;;;;;;;;;6275263;22;20069;-75
2022/01/21 04:39:08;;;;;;;17.48;7.82;;;;;;;;;;6275864;22;19980;-75
2022/01/21 04:49:37;;;;;;;10.82;5.45;;;;;;;;;;6274778;22;20007;-76
2022/01/21 04:52:03;;;;;;;14.85;6.18;;;;;;;;;;6275749;22;20004;-74
2022/01/21 04:57:06;;;;;;;11.85;5.60;;;;;;;;;;6265927;22;20004;-76
2022/01/21 04:59:32;;;;;;;8.18;3.80;;;;;;;;;;6274746;22;20048;-77
2022/01/21 05:01:58;;;;;;;7.82;3.60;;;;;;;;;;6283854;22;20056;-78
2022/01/21 05:04:25;;;;;;;9.57;4.30;;;;;;;;;;6299912;22;20004;-76
2022/01/21 05:06:53;;;;;;;11.32;5.57;;;;;;;;;;6305472;22;19992;-75
2022/01/21 05:09:22;;;;;;;14.68;6.45;;;;;;;;;;6303742;22;19988;-74
2022/01/21 05:11:51;;;;;;;10.65;4.65;;;;;;;;;;6305237;22;20030;-74
2022/01/21 05:14:22;;;;;;;11.95;5.05;;;;;;;;;;6305648;22;20143;-75
2022/01/21 05:17:00;;;;;;;10.43;4.60;;;;;;;;;;6304952;22;20012;-74
2022/01/21 05:19:27;;;;;;;9.73;5.57;;;;;;;;;;6303123;22;20003;-75
2022/01/21 05:21:53;;;;;;;10.15;4.80;;;;;;;;;;6304975;22;20008;-75
2022/01/21 05:24:20;;;;;;;12.00;4.30;;;;;;;;;;6304678;22;19984;-79
2022/01/21 05:26:53;;;;;;;7.32;4.30;;;;;;;;;;6305506;22;19988;-74
2022/01/21 05:29:20;;;;;;;8.98;4.68;;;;;;;;;;6304548;22;19996;-77
2022/01/21 05:31:46;;;;;;;11.05;5.05;;;;;;;;;;6303433;22;20003;-77
2022/01/21 05:34:12;;;;;;;12.55;6.53;;;;;;;;;;6302582;22;20421;-78
2022/01/21 05:36:40;;;;;;;10.35;5.65;;;;;;;;;;6302156;22;20003;-76
2022/01/21 05:39:10;;;;;;;16.98;7.32;;;;;;;;;;6304306;22;20031;-75
2022/01/21 05:41:36;;;;;;;14.70;6.68;;;;;;;;;;6300872;22;20011;-74
2022/01/21 05:44:18;;;;;;;12.32;5.97;;;;;;;;;;6301628;22;20055;-77
2022/01/21 05:49:11;;;;;;;10.77;5.55;;;;;;;;;;6312428;22;19991;-77
2022/01/21 05:51:38;;;;;;;11.73;5.45;;;;;;;;;;6298511;22;19999;-77
2022/01/21 05:54:04;;;;;;;10.63;5.85;;;;;;;;;;6301122;22;19988;-76
2022/01/21 05:56:31;;;;;;;14.25;6.65;;;;;;;;;;6300832;22;20015;-75
2022/01/21 05:58:59;;;;;;;12.98;6.43;;;;;;;;;;6300187;22;20012;-74
2022/01/21 06:01:26;;;;;;;11.77;6.47;;;;;;;;;;6299444;22;20012;-78
2022/01/21 06:03:52;;;;;;;14.98;7.10;;;;;;;;;;6302397;22;20008;-78
2022/01/21 06:06:21;;;;;;;15.30;7.50;;;;;;;;;;6299188;22;19992;-77
2022/01/21 06:08:47;;;;;;;17.13;8.73;;;;;;;;;;6302240;22;20026;-79
2022/01/21 06:11:15;;;;;;;17.58;8.40;;;;;;;;;;6301504;22;20026;-77
2022/01/21 06:13:43;;;;;;;14.27;8.20;;;;;;;;;;6298738;22;20082;-78
2022/01/21 06:16:10;;;;;;;16.88;8.30;;;;;;;;;;6299507;22;20055;-76
2022/01/21 06:18:38;;;;;;;14.25;7.63;;;;;;;;;;6295839;22;20012;-78
2022/01/21 06:21:10;;;;;;;17.17;8.20;;;;;;;;;;6300281;22;20011;-74
2022/01/21 06:23:53;;;;;;;12.32;7.28;;;;;;;;;;6283005;22;20439;-75
2022/01/21 06:26:32;;;;;;;15.13;7.18;;;;;;;;;;6285140;22;20489;-77
2022/01/21 06:28:59;;;;;;;15.60;7.40;;;;;;;;;;6286347;22;20007;-73
2022/01/21 06:31:29;;;;;;;14.00;7.40;;;;;;;;;;6290733;22;20004;-71
2022/01/21 06:33:57;;;;;;;11.48;6.85;;;;;;;;;;6299019;22;20000;-71
2022/01/21 06:36:23;;;;;;;13.55;7.10;;;;;;;;;;6297299;22;20003;-74
2022/01/21 06:39:00;;;;;;;14.10;7.15;;;;;;;;;;6296070;22;20684;-72
2022/01/21 06:41:26;;;;;;;12.32;6.55;;;;;;;;;;6296144;22;20015;-71
2022/01/21 06:43:52;;;;;;;13.52;6.25;;;;;;;;;;6298808;22;19996;-74
2022/01/21 06:46:18;;;;;;;12.70;6.55;;;;;;;;;;6299482;22;20008;-75
2022/01/21 06:48:47;;;;;;;10.88;6.03;;;;;;;;;;6295051;22;20000;-72
2022/01/21 06:51:13;;;;;;;10.23;5.93;;;;;;;;;;6298053;22;20010;-74
2022/01/21 06:54:23;;;;;;;10.75;5.97;;;;;;;;;;6291203;22;20004;-73
2022/01/21 06:57:21;;;;;;;8.52;5.25;;;;;;;;;;6144318;23;20032;-76
2022/01/21 06:59:48;;;;;;;10.65;6.00;;;;;;;;;;6138704;23;20013;-75
2022/01/21 07:02:16;;;;;;;10.98;5.85;;;;;;;;;;6121411;23;20005;-71
2022/01/21 07:04:49;;;;;;;14.05;5.88;;;;;;;;;;6147470;23;20002;-71
2022/01/21 07:07:22;;;;;;;10.32;5.53;;;;;;;;;;6144845;23;20040;-71
2022/01/21 07:09:48;;;;;;;10.68;6.32;;;;;;;;;;6145185;23;19999;-71
2022/01/21 07:12:51;;;;;;;10.90;6.15;;;;;;;;;;6147210;23;20010;-71
2022/01/21 07:15:41;;;;;;;9.10;5.63;;;;;;;;;;6045868;23;19991;-73
2022/01/21 07:18:17;;;;;;;12.50;7.00;;;;;;;;;;6026067;23;20098;-70
2022/01/21 07:20:52;;;;;;;11.02;6.88;;;;;;;;;;5981272;23;20423;-74
2022/01/21 07:23:44;;;;;;;12.60;6.22;;;;;;;;;;6029646;23;20012;-71
2022/01/21 07:26:14;;;;;;;14.05;8.82;;;;;;;;;;5948127;24;20073;-75
2022/01/21 07:29:05;;;;;;;15.70;7.28;;;;;;;;;;5949331;24;20083;-71
2022/01/21 07:31:59;;;;;;;14.15;7.13;;;;;;;;;;5889438;24;20043;-71
2022/01/21 07:34:28;;;;;;;9.90;6.03;;;;;;;;;;5897196;24;20017;-74
2022/01/21 07:37:26;;;;;;;9.45;6.13;;;;;;;;;;5924291;24;20017;-74
2022/01/21 07:39:52;;;;;;;9.98;6.78;;;;;;;;;;5916467;24;20096;-77
2022/01/21 07:42:19;;;;;;;9.20;5.13;;;;;;;;;;5913589;24;20025;-78
2022/01/21 07:44:49;;;;;;;14.38;7.43;;;;;;;;;;5915092;24;20025;-76
2022/01/21 07:47:15;;;;;;;12.57;6.50;;;;;;;;;;5915101;24;20010;-75
2022/01/21 07:49:53;;;;;;;9.13;4.45;;;;;;;;;;5963211;24;20012;-75
2022/01/21 07:55:06;;;;;;;10.43;6.85;;;;;;;;;;6031309;23;20043;-75
2022/01/21 07:57:35;;;;;;;9.88;6.40;;;;;;;;;;6058105;23;20088;-71
2022/01/21 08:00:06;;;;;;;11.25;5.43;;;;;;;;;;6049429;23;20001;-74
2022/01/21 08:02:32;;;;;;;12.70;5.28;;;;;;;;;;6128153;22;20027;-76
2022/01/21 08:05:11;;;;;;;8.55;5.07;;;;;;;;;;6256013;22;20010;-73
2022/01/21 08:07:37;;;;;;;11.68;6.68;;;;;;;;;;6256016;22;20008;-76
2022/01/21 08:10:04;;;;;;;14.18;6.78;;;;;;;;;;6257516;22;20004;-77
2022/01/21 08:12:32;;;;;;;15.30;8.52;;;;;;;;;;6255817;22;20075;-77
2022/01/21 08:14:58;;;;;;;12.05;6.65;;;;;;;;;;6283151;22;20452;-77
2022/01/21 08:17:24;;;;;;;15.30;8.15;;;;;;;;;;6256109;22;20446;-77
2022/01/21 08:19:50;;;;;;;13.18;8.27;;;;;;;;;;6291319;22;20011;-75
2022/01/21 08:22:17;;;;;;;11.73;7.28;;;;;;;;;;6271998;22;20012;-76
2022/01/21 08:24:43;;;;;;;10.35;5.18;;;;;;;;;;6271704;22;20003;-75
2022/01/21 08:27:23;;;;;;;10.75;5.30;;;;;;;;;;6262799;22;20004;-71
2022/01/21 08:29:50;;;;;;;11.38;6.50;;;;;;;;;;6193566;23;20024;-76
2022/01/21 08:32:16;;;;;;;10.70;5.70;;;;;;;;;;6160474;23;20005;-73
2022/01/21 08:34:42;;;;;;;10.85;5.72;;;;;;;;;;6160922;23;20009;-77
2022/01/21 08:37:08;;;;;;;11.35;5.47;;;;;;;;;;6162783;23;20029;-75
2022/01/21 08:39:34;;;;;;;9.60;4.63;;;;;;;;;;6188833;23;20009;-76
2022/01/21 08:42:08;;;;;;;10.90;5.35;;;;;;;;;;6167987;23;20008;-74
2022/01/21 08:44:37;;;;;;;;;;;;;;;;;;6178914;23;20074;-73
2022/01/21 08:47:04;;;;;;;7.72;4.65;;;;;;;;;;6167497;23;19900;-76
2022/01/21 08:49:31;;;;;;;9.65;4.32;;;;;;;;;;6196699;23;20009;-77
2022/01/21 08:51:58;;;;;;;8.35;4.57;;;;;;;;;;6162830;23;20016;-76
2022/01/21 08:54:26;;;;;;;9.38;4.00;;;;;;;;;;6197447;23;20108;-74
2022/01/21 08:56:59;;;;;;;7.93;4.32;;;;;;;;;;6188649;23;20017;-77
2022/01/21 08:59:43;;;;;;;8.50;4.47;;;;;;;;;;6175803;23;20005;-72
2022/01/21 09:02:13;;;;;;;8.90;4.78;;;;;;;;;;6265704;22;20083;-78
2022/01/21 09:04:39;;;;;;;7.68;4.32;;;;;;;;;;6254372;22;20015;-76
2022/01/21 09:07:05;;;;;;;7.22;3.92;;;;;;;;;;6252995;22;20004;-75
2022/01/21 09:09:32;;;;;;;8.77;4.35;;;;;;;;;;6278115;22;20071;-75
2022/01/21 09:12:00;;;;;;;8.98;3.75;;;;;;;;;;6258880;22;20006;-76
2022/01/21 09:14:30;;;;;;;6.28;3.85;;;;;;;;;;6261652;22;20069;-78
2022/01/21 09:16:57;;;;;;;8.35;4.00;;;;;;;;;;6290985;22;20008;-77
2022/01/21 09:19:33;;;;;;;9.02;4.28;;;;;;;;;;6285854;22;20003;-76
2022/01/21 09:22:02;;;;;;;6.03;3.33;;;;;;;;;;6252711;22;19999;-76
2022/01/21 09:24:28;;;;;;;7.03;4.05;;;;;;;;;;6256327;22;20031;-73
2022/01/21 09:26:55;;;;;;;5.30;3.45;;;;;;;;;;6289351;22;20075;-72
2022/01/21 09:29:27;;;;;;;9.65;3.80;;;;;;;;;;6288377;22;20002;-77
2022/01/21 09:31:54;;;;;;;10.05;3.40;;;;;;;;;;6260619;22;20042;-76
2022/01/21 09:34:49;;;;;;;8.45;3.92;;;;;;;;;;6263888;22;20003;-71
2022/01/21 09:37:19;;;;;;;9.13;4.18;;;;;;;;;;6290215;22;20016;-71
2022/01/21 09:39:45;;;;;;;10.43;3.95;;;;;;;;;;6267294;22;20010;-75
2022/01/21 09:42:14;;;;;;;7.30;4.00;;;;;;;;;;6258645;22;20012;-75
2022/01/21 09:44:40;;;;;;;8.90;4.10;;;;;;;;;;6258330;22;20063;-75
2022/01/21 09:47:14;;;;;;;12.32;4.18;;;;;;;;;;6294944;22;20077;-74
2022/01/21 09:49:42;;;;;;;11.32;4.63;;;;;;;;;;6267666;22;20075;-72
2022/01/21 09:52:16;;;;;;;7.57;3.20;;;;;;;;;;6264423;22;20012;-74
2022/01/21 09:54:48;;;;;;;10.13;3.40;;;;;;;;;;6266410;22;20015;-73
2022/01/21 09:57:28;;;;;;;6.97;3.90;;;;;;;;;;6287019;22;20027;-73
2022/01/21 10:00:07;;;;;;;8.73;4.90;;;;;;;;;;6286152;22;20010;-71
2022/01/21 10:02:43;;;;;;;16.42;9.25;;;;;;;;;;6287143;22;20004;-74
2022/01/21 10:05:10;;;;;;;12.77;4.38;;;;;;;;;;6291155;22;20010;-74
2022/01/21 10:07:44;;;;;;;10.90;5.53;;;;;;;;;;6287846;22;20037;-76
2022/01/21 10:10:14;;;;;;;6.28;3.92;;;;;;;;;;6288547;22;20002;-76
2022/01/21 10:12:46;;;;;;;9.60;3.85;;;;;;;;;;6287511;22;20003;-76
2022/01/21 10:15:12;;;;;;;7.40;4.53;;;;;;;;;;6285167;22;20000;-77
2022/01/21 10:17:39;;;;;;;9.55;3.63;;;;;;;;;;6287033;22;20020;-75
2022/01/21 10:20:21;;;;;;;8.18;4.25;;;;;;;;;;6289387;22;20011;-75
2022/01/21 10:23:04;;;;;;;11.65;4.40;;;;;;;;;;6292109;22;20421;-73
2022/01/21 10:25:34;;;;;;;9.93;4.00;;;;;;;;;;6293210;22;20010;-75
2022/01/21 10:28:17;;;;;;;10.48;3.92;;;;;;;;;;6291756;22;20003;-76
2022/01/21 10:30:44;;;;;;;7.35;3.47;;;;;;;;;;6293278;22;20437;-75
2022/01/21 10:33:18;;;;;;;7.70;3.30;;;;;;;;;;6291554;22;20004;-75
2022/01/21 10:35:47;;;;;;;7.93;3.55;;;;;;;;;;6292918;22;20011;-74
2022/01/21 10:38:14;;;;;;;7.88;3.80;;;;;;;;;;6294963;22;20007;-74
2022/01/21 10:40:40;;;;;;;10.43;3.65;;;;;;;;;;6295931;22;19979;-75
2022/01/21 10:43:16;;;;;;;8.18;3.53;;;;;;;;;;6295886;22;20007;-74
2022/01/21 10:45:59;;;;;;;12.82;4.93;;;;;;;;;;6293348;22;20003;-76
2022/01/21 10:48:28;;;;;;;12.98;5.95;;;;;;;;;;6289692;22;20393;-75
2022/01/21 10:51:12;;;;;;;12.32;4.18;;;;;;;;;;6277299;22;20015;-75
2022/01/21 10:53:51;;;;;;;19.17;13.80;;;;;;;;;;6280902;22;20000;-71
2022/01/21 10:56:24;;;;;;;9.23;4.30;;;;;;;;;;6289053;22;20010;-72
2022/01/21 10:58:56;;;;;;;13.00;6.68;;;;;;;;;;6197649;23;20021;-72
2022/01/21 11:01:41;;;;;;;11.30;4.20;;;;;;;;;;6225978;23;20000;-72
2022/01/21 11:04:12;;;;;;;8.43;3.17;;;;;;;;;;6173570;23;20001;-71
2022/01/21 11:06:58;;;;;;;13.98;4.47;;;;;;;;;;6145157;23;20010;-71
2022/01/21 11:09:44;;;;;;;10.13;3.80;;;;;;;;;;6144554;23;20071;-71
2022/01/21 11:12:24;;;;;;;9.98;3.10;;;;;;;;;;6145326;23;20107;-74
2022/01/21 11:15:09;;;;;;;5.50;3.10;;;;;;;;;;6167167;23;20009;-71
2022/01/21 11:17:56;;;;;;;6.68;3.03;;;;;;;;;;6168795;23;20279;-71
2022/01/21 11:20:39;;;;;;;8.75;3.70;;;;;;;;;;6138761;23;20420;-71
2022/01/21 11:23:20;;;;;;;10.60;3.50;;;;;;;;;;6165916;23;20088;-71
2022/01/21 11:25:56;;;;;;;9.52;4.32;;;;;;;;;;6171795;23;20065;-71
2022/01/21 11:28:33;;;;;;;10.32;4.05;;;;;;;;;;6160147;23;20041;-71
2022/01/21 11:31:15;;;;;;;7.07;2.78;;;;;;;;;;6168327;23;20006;-71
2022/01/21 11:33:42;;;;;;;8.50;3.83;;;;;;;;;;6172308;23;20013;-70
2022/01/21 11:36:08;;;;;;;8.02;2.83;;;;;;;;;;6205899;23;20004;-71
2022/01/21 11:38:44;;;;;;;5.45;2.92;;;;;;;;;;6227748;23;20020;-71
2022/01/21 11:41:16;;;;;;;8.13;4.53;;;;;;;;;;6236091;23;20028;-70
2022/01/21 11:43:51;;;;;;;9.52;2.90;;;;;;;;;;6288017;22;20005;-71
2022/01/21 11:49:17;;;;;;;13.05;4.28;;;;;;;;;;6337609;22;20440;-70
2022/01/21 11:51:48;;;;;;;7.80;3.28;;;;;;;;;;6288774;22;20034;-71
2022/01/21 11:54:25;;;;;;;5.25;3.10;;;;;;;;;;6297390;22;20071;-71
2022/01/21 11:56:59;;;;;;;8.30;3.65;;;;;;;;;;6294248;22;20468;-71
2022/01/21 12:02:19;;;;;;;7.28;3.45;;;;;;;;;;6319060;22;20026;-71
2022/01/21 12:04:57;;;;;;;6.72;3.20;;;;;;;;;;6299981;22;19989;-70
2022/01/21 12:07:48;;;;;;;5.97;2.67;;;;;;;;;;6314878;22;20011;-74
2022/01/21 12:10:25;;;;;;;13.25;3.40;;;;;;;;;;6291224;22;20003;-74
2022/01/21 12:13:01;;;;;;;5.50;3.30;;;;;;;;;;6298275;22;20009;-75
2022/01/21 12:20:32;;;;;;;9.65;3.33;;;;;;;;;;6239651;22;20020;-72
2022/01/21 12:23:13;;;;;;;6.95;3.33;;;;;;;;;;6262821;23;20010;-73
2022/01/21 12:26:03;;;;;;;9.00;3.25;;;;;;;;;;6259377;23;20023;-72
2022/01/21 12:28:33;;;;;;;13.45;3.15;;;;;;;;;;6259943;23;20423;-76
2022/01/21 12:31:00;;;;;;;6.30;3.03;;;;;;;;;;6265687;23;20054;-72
2022/01/21 12:33:49;;;;;;;6.10;2.90;;;;;;;;;;6264779;23;20011;-72
2022/01/21 12:36:18;;;;;;;6.75;3.20;;;;;;;;;;6266079;22;20000;-72
2022/01/21 12:41:46;;;;;;;16.40;7.65;;;;;;;;;;6177083;23;20020;-71
2022/01/21 12:44:14;;;;;;;5.47;2.92;;;;;;;;;;6176570;23;20061;-72
2022/01/21 12:46:42;;;;;;;9.45;3.60;;;;;;;;;;6172688;23;20017;-71
2022/01/21 12:49:26;;;;;;;8.07;3.00;;;;;;;;;;6147661;23;20109;-72
2022/01/21 12:52:09;;;;;;;8.23;2.70;;;;;;;;;;6145781;23;20033;-72
2022/01/21 12:57:35;;;;;;;9.55;5.05;;;;;;;;;;6166869;23;20087;-72
2022/01/21 13:00:08;;;;;;;7.65;3.47;;;;;;;;;;6143918;23;20413;-72
2022/01/21 13:02:36;;;;;;;9.85;3.60;;;;;;;;;;6179656;23;20032;-72
2022/01/21 13:05:34;;;;;;;10.20;3.83;;;;;;;;;;6188523;23;19998;-72
2022/01/21 13:08:05;;;;;;;9.25;4.20;;;;;;;;;;6197287;23;20088;-72
2022/01/21 13:10:38;;;;;;;10.68;3.78;;;;;;;;;;6197316;23;20091;-73
2022/01/21 13:15:55;;;;;;;10.15;4.97;;;;;;;;;;6226409;23;20025;-72
2022/01/21 13:18:36;;;;;;;;;;;;;;;;;;;;;
2022/01/21 13:21:08;;;;;;;7.75;3.60;;;;;;;;;;6317789;22;20039;-71
2022/01/21 13:23:58;;;;;;;11.35;3.80;;;;;;;;;;6294156;22;20019;-73
2022/01/21 13:26:36;;;;;;;12.32;4.90;;;;;;;;;;6314845;22;20055;-72
2022/01/21 13:29:06;;;;;;;10.95;4.50;;;;;;;;;;6303381;22;20029;-79
2022/01/21 13:34:40;;;;;;;11.50;7.07;;;;;;;;;;6229539;22;20111;-75
2022/01/21 13:37:18;;;;;;;12.65;3.95;;;;;;;;;;6236462;23;20000;-74
2022/01/21 13:39:47;;;;;;;11.10;3.90;;;;;;;;;;6232727;23;20019;-74
2022/01/21 13:42:20;;;;;;;9.50;4.30;;;;;;;;;;6228501;23;20433;-75
2022/01/21 13:44:51;;;;;;;9.00;5.60;;;;;;;;;;6231379;23;20488;-74
2022/01/21 13:47:35;;;;;;;9.70;5.65;;;;;;;;;;6233625;23;20062;-77
2022/01/21 13:50:06;;;;;;;11.82;3.90;;;;;;;;;;6225026;23;20055;-77
2022/01/21 13:52:37;;;;;;;8.93;4.28;;;;;;;;;;6258527;22;20016;-75
2022/01/21 13:55:06;;;;;;;11.90;5.60;;;;;;;;;;6254237;23;20004;-76
2022/01/21 13:57:47;;;;;;;8.77;4.18;;;;;;;;;;6256449;23;20016;-76
2022/01/21 14:00:16;;;;;;;12.10;3.33;;;;;;;;;;6226225;23;20058;-73
2022/01/21 14:02:42;;;;;;;9.20;3.65;;;;;;;;;;6255837;22;20019;-74
2022/01/21 14:05:12;;;;;;;9.70;3.60;;;;;;;;;;6259676;22;20027;-76
2022/01/21 14:07:39;;;;;;;11.27;3.60;;;;;;;;;;6254352;22;20881;-76
2022/01/21 14:10:07;;;;;;;17.95;8.23;;;;;;;;;;6221246;23;20017;-73
2022/01/21 14:12:33;;;;;;;10.45;3.95;;;;;;;;;;6194571;23;20009;-73
2022/01/21 14:15:00;;;;;;;9.48;3.50;;;;;;;;;;6220259;23;20012;-75
2022/01/21 14:17:27;;;;;;;10.75;3.42;;;;;;;;;;6219657;23;20008;-77
2022/01/21 14:19:54;;;;;;;8.80;3.72;;;;;;;;;;6216373;23;20005;-76
2022/01/21 14:22:21;;;;;;;12.85;3.88;;;;;;;;;;6197818;23;20066;-78
2022/01/21 14:24:49;;;;;;;11.52;4.40;;;;;;;;;;6223785;23;20031;-77
2022/01/21 14:27:27;;;;;;;8.40;3.85;;;;;;;;;;6229432;22;20051;-73
2022/01/21 14:29:55;;;;;;;13.10;7.72;;;;;;;;;;6189699;23;20031;-77
2022/01/21 14:32:21;;;;;;;9.93;3.65;;;;;;;;;;6193666;23;20422;-73
2022/01/21 14:34:48;;;;;;;8.73;4.13;;;;;;;;;;6224711;23;20004;-73
2022/01/21 14:37:20;;;;;;;10.05;3.88;;;;;;;;;;6194025;23;20016;-73
2022/01/21 14:40:15;;;;;;;8.43;4.05;;;;;;;;;;6230638;23;19976;-77
2022/01/21 14:42:41;;;;;;;13.38;4.18;;;;;;;;;;6230804;23;20070;-77
2022/01/21 14:45:18;;;;;;;16.17;4.80;;;;;;;;;;6228356;23;20007;-75
2022/01/21 14:47:45;;;;;;;13.27;5.72;;;;;;;;;;6192349;23;20427;-76
2022/01/21 14:50:14;;;;;;;14.80;6.43;;;;;;;;;;6191246;23;20013;-73
2022/01/21 14:52:52;;;;;;;17.88;6.10;;;;;;;;;;6190569;23;20009;-74
2022/01/21 14:55:26;;;;;;;14.73;5.85;;;;;;;;;;6215525;23;20484;-74
2022/01/21 14:57:59;;;;;;;13.70;4.90;;;;;;;;;;6190695;23;20020;-73
2022/01/21 15:00:35;;;;;;;;;;;;;;;;;;6189222;23;20011;-72
2022/01/21 15:03:03;;;;;;;10.32;4.80;;;;;;;;;;6218030;23;19900;-76
2022/01/21 15:05:31;;;;;;;19.95;7.43;;;;;;;;;;6246758;23;20016;-75
2022/01/21 15:08:00;;;;;;;13.48;6.38;;;;;;;;;;6218049;23;20034;-76
2022/01/21 15:10:40;;;;;;;13.02;5.57;;;;;;;;;;6218924;23;20398;-74
2022/01/21 15:16:27;;;;;;;18.15;5.15;;;;;;;;;;6250998;23;20019;-73
2022/01/21 15:18:56;;;;;;;12.48;5.47;;;;;;;;;;6249525;23;20019;-73
2022/01/21 15:21:33;;;;;;;13.73;5.15;;;;;;;;;;6251088;23;20000;-73
2022/01/21 15:24:18;;;;;;;13.20;5.10;;;;;;;;;;6228099;23;20432;-73
2022/01/21 15:26:53;;;;;;;10.23;5.85;;;;;;;;;;6226084;23;20435;-73
2022/01/21 15:29:19;;;;;;;12.80;6.57;;;;;;;;;;6228034;23;20418;-73
2022/01/21 15:31:46;;;;;;;16.55;6.30;;;;;;;;;;6246881;23;20322;-74
2022/01/21 15:34:12;;;;;;;13.15;6.72;;;;;;;;;;6220424;23;20090;-74
2022/01/21 15:36:41;;;;;;;16.10;8.13;;;;;;;;;;6247419;23;20426;-72
2022/01/21 15:39:08;;;;;;;18.42;8.52;;;;;;;;;;6221605;23;20158;-74
2022/01/21 15:41:41;;;;;;;20.75;8.07;;;;;;;;;;6194419;23;20008;-78
2022/01/21 15:44:07;;;;;;;;;;;;;;;;;;6248851;23;20418;-77
2022/01/21 15:46:37;;;;;;;21.42;9.00;;;;;;;;;;6254653;23;19899;-74
2022/01/21 15:49:12;;;;;;;20.35;8.77;;;;;;;;;;6266269;23;20421;-72
2022/01/21 15:51:38;;;;;;;21.33;13.07;;;;;;;;;;6222383;23;20011;-75
2022/01/21 15:54:08;;;;;;;17.08;8.75;;;;;;;;;;6249563;23;20003;-71
2022/01/21 15:56:35;;;;;;;20.35;9.35;;;;;;;;;;6250647;23;20000;-72
2022/01/21 15:59:07;;;;;;;15.52;8.05;;;;;;;;;;6250647;23;20058;-72
2022/01/21 16:01:34;;;;;;;14.00;6.47;;;;;;;;;;6251203;23;20064;-76
2022/01/21 16:04:02;;;;;;;15.00;6.53;;;;;;;;;;6226810;23;20019;-77
2022/01/21 16:06:31;;;;;;;12.13;6.18;;;;;;;;;;6222713;23;20000;-77
2022/01/21 16:09:05;;;;;;;24.50;10.05;;;;;;;;;;6251716;23;20450;-72
2022/01/21 16:11:47;;;;;;;26.38;12.43;;;;;;;;;;6225833;23;20004;-72
2022/01/21 16:14:16;;;;;;;23.27;10.35;;;;;;;;;;6222667;23;20028;-73
2022/01/21 16:16:48;;;;;;;30.40;14.93;;;;;;;;;;6225731;23;20000;-73
2022/01/21 16:19:16;;;;;;;13.82;7.20;;;;;;;;;;6227468;23;20047;-75
2022/01/21 16:21:45;;;;;;;12.55;6.60;;;;;;;;;;6225991;23;20066;-73
2022/01/21 16:24:14;;;;;;;13.95;6.85;;;;;;;;;;6258091;23;20518;-73
2022/01/21 16:26:45;;;;;;;12.45;5.40;;;;;;;;;;6224125;23;20310;-75
2022/01/21 16:29:12;;;;;;;12.05;5.68;;;;;;;;;;6249878;23;20011;-74